Погода Монсеньор Гилна 2 недели

Пиауи, Бразилия

19 - 31 июля
  • 19июля
    Сегодня
    +24°
    +33°
    Практически безоблачно
    ВремяПогодаТемператураВлажностьДавлениеВетер, м/сВероятность осадков
    00:00Небольшая облачность+28°C48 %749 мм3.0 м/с5 %
    03:00Ясно и безоблачно+25°C56 %748 мм2.9 м/с5 %
    06:00Ясно и безоблачно+24°C62 %749 мм3.2 м/с5 %
    09:00Ясно и безоблачно+28°C51 %750 мм4.6 м/с5 %
    12:00Ясно и безоблачно+31°C37 %749 мм4.2 м/с5 %
    15:00Практически безоблачно+33°C30 %747 мм3.5 м/с5 %
    18:00Ясно и безоблачно+30°C41 %747 мм2.7 м/с5 %
    21:00Ясно и безоблачно+28°C44 %748 мм3.1 м/с5 %
  • 20июля
    Суббота
    +23°
    +33°
    Практически безоблачно
    ВремяПогодаТемператураВлажностьДавлениеВетер, м/сВероятность осадков
    00:00Облачно с прояснениями+28°C45 %749 мм4.2 м/с5 %
    03:00Небольшая облачность+26°C48 %748 мм3.6 м/с5 %
    06:00Ясно и безоблачно+25°C61 %748 мм4.2 м/с5 %
    09:00Ясно и безоблачно+28°C54 %750 мм5.0 м/с4 %
    12:00Практически безоблачно+31°C38 %749 мм5.1 м/с5 %
    15:00Практически безоблачно+32°C33 %747 мм3.6 м/с5 %
    18:00Практически безоблачно+30°C38 %747 мм2.4 м/с5 %
    21:00Ясно и безоблачно+27°C40 %748 мм3.7 м/с5 %
  • 21июля
    Воскресенье
    +24°
    +34°
    Небольшая облачность
    ВремяПогодаТемператураВлажностьДавлениеВетер, м/сВероятность осадков
    00:00Облачно с прояснениями+28°C43 %748 мм3.5 м/с5 %
    03:00Ясно и безоблачно+25°C49 %747 мм3.7 м/с5 %
    06:00Ясно и безоблачно+23°C56 %748 мм4.1 м/с5 %
    09:00Ясно и безоблачно+27°C48 %749 мм5.1 м/с5 %
    12:00Ясно и безоблачно+31°C31 %748 мм4.4 м/с5 %
    15:00Небольшая облачность+33°C25 %745 мм3.2 м/с5 %
    18:00Ясно и безоблачно+31°C32 %746 мм2.6 м/с5 %
    21:00Небольшая облачность+29°C34 %747 мм3.5 м/с5 %
  • 22июля
    Понедельник
    +23°
    +33°
    Практически безоблачно
    ВремяПогодаТемператураВлажностьДавлениеВетер, м/сВероятность осадков
    00:00Практически безоблачно+28°C40 %748 мм4.5 м/с5 %
    03:00Ясно и безоблачно+25°C48 %747 мм3.6 м/с5 %
    06:00Ясно и безоблачно+25°C54 %749 мм3.8 м/с5 %
    09:00Ясно и безоблачно+27°C50 %750 мм5.0 м/с5 %
    12:00Ясно и безоблачно+31°C34 %749 мм4.7 м/с5 %
    15:00Практически безоблачно+33°C28 %747 мм3.5 м/с5 %
    18:00Ясно и безоблачно+31°C35 %747 мм3.1 м/с5 %
    21:00Ясно и безоблачно+28°C39 %748 мм3.3 м/с5 %
  • 23июля
    Вторник
    +24°
    +34°
    Ясно и безоблачно
    ВремяПогодаТемператураВлажностьДавлениеВетер, м/сВероятность осадков
    00:00Ясно и безоблачно+26°C41 %748 мм3.2 м/с5 %
    03:00Ясно и безоблачно+25°C46 %748 мм3.1 м/с5 %
    06:00Ясно и безоблачно+24°C51 %749 мм4.1 м/с5 %
    09:00Ясно и безоблачно+27°C49 %750 мм4.9 м/с5 %
    12:00Ясно и безоблачно+31°C36 %749 мм4.7 м/с5 %
    15:00Ясно и безоблачно+34°C32 %747 мм3.6 м/с5 %
    18:00Практически безоблачно+32°C38 %747 мм2.7 м/с5 %
    21:00Небольшая облачность+29°C42 %748 мм2.8 м/с5 %
Мы используем cookies
Соглашаюсь